createdAt,value
2018-04-19T00:02:26.554Z,12.21
2018-04-19T00:04:54.074Z,12.28
2018-04-19T00:07:21.563Z,12.42
2018-04-19T00:09:49.066Z,12.33
2018-04-19T00:12:16.586Z,12.27
2018-04-19T00:14:44.065Z,12.33
2018-04-19T00:17:11.918Z,12.28
2018-04-19T00:19:39.397Z,12.13
2018-04-19T00:22:06.876Z,12.17
2018-04-19T00:24:34.390Z,12.05
2018-04-19T00:27:01.866Z,12.13
2018-04-19T00:29:29.508Z,12.06
2018-04-19T00:31:57.026Z,11.80
2018-04-19T00:34:24.516Z,11.89
2018-04-19T00:36:52.049Z,12.05
2018-04-19T00:39:19.537Z,11.76
2018-04-19T00:41:47.302Z,11.56
2018-04-19T00:44:14.785Z,11.68
2018-04-19T00:46:42.267Z,11.52
2018-04-19T00:49:09.782Z,11.29
2018-04-19T00:51:37.266Z,11.41
2018-04-19T00:54:05.033Z,11.61
2018-04-19T00:56:32.518Z,11.54
2018-04-19T00:59:00.001Z,11.33
2018-04-19T01:01:27.518Z,11.49
2018-04-19T01:03:54.999Z,11.38
2018-04-19T01:06:22.709Z,11.46
2018-04-19T01:08:50.197Z,11.69
2018-04-19T01:11:17.685Z,11.30
2018-04-19T01:13:45.191Z,11.48
2018-04-19T01:16:12.668Z,11.20
2018-04-19T01:18:40.193Z,11.21
2018-04-19T01:21:07.670Z,11.09
2018-04-19T01:23:35.155Z,11.10
2018-04-19T01:26:02.670Z,11.20
2018-04-19T01:28:30.173Z,11.29
2018-04-19T01:30:57.690Z,11.21
2018-04-19T01:33:25.169Z,10.86
2018-04-19T01:36:04.928Z,10.64
2018-04-19T01:38:32.459Z,10.90
2018-04-19T01:40:59.909Z,10.91
2018-04-19T01:43:27.413Z,10.92
2018-04-19T01:45:54.902Z,10.93
2018-04-19T01:48:22.473Z,10.88
2018-04-19T01:50:49.981Z,11.02
2018-04-19T01:53:17.466Z,10.94
2018-04-19T01:55:45.005Z,10.78
2018-04-19T01:58:12.485Z,10.86
2018-04-19T02:00:40.350Z,10.91
2018-04-19T02:03:07.825Z,10.65
2018-04-19T02:05:35.308Z,10.75
2018-04-19T02:08:02.809Z,10.62
2018-04-19T02:10:30.313Z,10.70
2018-04-19T02:12:57.981Z,10.55
2018-04-19T02:15:25.461Z,10.79
2018-04-19T02:17:52.945Z,10.81
2018-04-19T02:20:20.446Z,10.74
2018-04-19T02:22:47.961Z,10.80
2018-04-19T02:25:15.505Z,10.50
2018-04-19T02:27:43.004Z,10.44
2018-04-19T02:30:10.498Z,10.18
2018-04-19T02:32:38.005Z,9.98
2018-04-19T02:35:05.488Z,10.30
2018-04-19T02:37:33.021Z,10.27
2018-04-19T02:40:00.503Z,10.22
2018-04-19T02:42:27.997Z,10.06
2018-04-19T02:44:55.502Z,9.90
2018-04-19T02:47:22.989Z,10.09
2018-04-19T02:49:50.510Z,10.14
2018-04-19T02:52:17.993Z,10.05
2018-04-19T02:54:45.505Z,10.09
2018-04-19T02:57:13.010Z,9.88
2018-04-19T02:59:40.505Z,9.92
2018-04-19T03:02:08.303Z,9.86
2018-04-19T03:04:35.786Z,9.84
2018-04-19T03:07:03.285Z,9.83
2018-04-19T03:09:30.789Z,9.93
2018-04-19T03:11:58.266Z,9.99
2018-04-19T03:14:26.082Z,9.87
2018-04-19T03:16:53.561Z,10.01
2018-04-19T03:19:21.042Z,10.08
2018-04-19T03:21:48.552Z,9.99
2018-04-19T03:24:16.025Z,9.87
2018-04-19T03:26:43.825Z,10.02
2018-04-19T03:29:11.305Z,9.87
2018-04-19T03:31:38.777Z,9.90
2018-04-19T03:34:06.305Z,10.08
2018-04-19T03:36:33.784Z,9.80
2018-04-19T03:39:01.293Z,9.88
2018-04-19T03:41:28.797Z,9.76
2018-04-19T03:43:56.289Z,9.75
2018-04-19T03:46:23.793Z,9.68
2018-04-19T03:48:51.277Z,9.75
2018-04-19T03:51:18.916Z,9.73
2018-04-19T03:53:46.397Z,9.80
2018-04-19T03:56:13.876Z,9.92
2018-04-19T03:58:41.373Z,9.79
2018-04-19T04:01:08.954Z,9.56
2018-04-19T04:03:36.776Z,9.65
2018-04-19T04:06:04.250Z,9.60
2018-04-19T04:08:31.737Z,9.42
2018-04-19T04:10:59.244Z,9.41
2018-04-19T04:13:26.717Z,9.20
2018-04-19T04:15:54.229Z,9.15
2018-04-19T04:18:33.485Z,9.31
2018-04-19T04:21:18.164Z,9.42
2018-04-19T04:23:53.391Z,9.49
2018-04-19T04:26:20.905Z,9.57
2018-04-19T04:28:48.380Z,9.69
2018-04-19T04:31:15.952Z,9.48
2018-04-19T04:33:44.316Z,9.40
2018-04-19T04:36:11.814Z,9.47
2018-04-19T04:38:39.469Z,9.48
2018-04-19T04:41:06.953Z,9.40
2018-04-19T04:43:34.441Z,9.47
2018-04-19T04:46:01.938Z,9.69
2018-04-19T04:48:29.426Z,9.27
2018-04-19T04:50:57.181Z,9.42
2018-04-19T04:53:24.670Z,9.61
2018-04-19T04:55:52.156Z,9.49
2018-04-19T04:58:19.700Z,9.55
2018-04-19T05:00:47.189Z,9.37
2018-04-19T05:03:14.706Z,9.64
2018-04-19T05:05:42.218Z,9.72
2018-04-19T05:08:09.749Z,9.81
2018-04-19T05:10:37.258Z,10.03
2018-04-19T05:13:04.737Z,10.42
2018-04-19T05:15:32.546Z,11.00
2018-04-19T05:18:00.032Z,11.45
2018-04-19T05:20:27.591Z,11.87
2018-04-19T05:22:55.058Z,12.45
2018-04-19T05:25:22.562Z,12.89
2018-04-19T05:27:50.185Z,13.05
2018-04-19T05:30:17.666Z,13.42
2018-04-19T05:32:45.157Z,13.57
2018-04-19T05:35:12.669Z,13.59
2018-04-19T05:37:40.470Z,13.84
2018-04-19T05:40:08.241Z,13.85
2018-04-19T05:42:35.721Z,13.74
2018-04-19T05:45:03.234Z,14.33
2018-04-19T05:47:30.741Z,14.30
2018-04-19T05:49:58.233Z,14.24
2018-04-19T05:52:26.009Z,14.48
2018-04-19T05:54:53.493Z,14.47
2018-04-19T05:57:20.984Z,14.53
2018-04-19T05:59:48.495Z,14.36
2018-04-19T06:02:15.980Z,14.36
2018-04-19T06:04:43.565Z,14.66
2018-04-19T06:07:11.050Z,14.45
2018-04-19T06:09:38.545Z,14.30
2018-04-19T06:12:06.077Z,14.22
2018-04-19T06:14:33.590Z,14.30
2018-04-19T06:17:01.122Z,14.15
2018-04-19T06:19:28.610Z,14.28
2018-04-19T06:21:56.097Z,14.23
2018-04-19T06:24:23.609Z,14.47
2018-04-19T06:26:51.104Z,14.56
2018-04-19T06:29:19.074Z,14.76
2018-04-19T06:31:46.565Z,14.77
2018-04-19T06:34:14.057Z,14.81
2018-04-19T06:36:41.570Z,14.82
2018-04-19T06:39:09.057Z,14.83
2018-04-19T06:41:36.602Z,14.66
2018-04-19T06:44:04.108Z,14.95
2018-04-19T06:46:31.618Z,15.05
2018-04-19T06:48:59.141Z,14.96
2018-04-19T06:51:26.628Z,15.09
2018-04-19T06:53:54.500Z,15.26
2018-04-19T06:56:22.004Z,15.67
2018-04-19T06:58:49.498Z,15.42
2018-04-19T07:01:17.013Z,15.65
2018-04-19T07:03:44.504Z,16.19
2018-04-19T07:06:12.244Z,16.46
2018-04-19T07:08:39.745Z,16.30
2018-04-19T07:11:07.233Z,16.43
2018-04-19T07:13:34.754Z,16.19
2018-04-19T07:16:02.254Z,16.27
2018-04-19T07:18:29.902Z,16.34
2018-04-19T07:20:57.682Z,16.66
2018-04-19T07:23:25.173Z,16.86
2018-04-19T07:25:52.701Z,16.77
2018-04-19T07:28:20.313Z,16.72
2018-04-19T07:30:48.949Z,17.21
2018-04-19T07:33:16.441Z,17.20
2018-04-19T07:35:43.955Z,17.30
2018-04-19T07:38:11.473Z,17.68
2018-04-19T07:40:38.980Z,17.61
2018-04-19T07:43:06.760Z,18.43
2018-04-19T07:45:34.262Z,18.02
2018-04-19T07:48:01.757Z,18.13
2018-04-19T07:50:29.304Z,17.98
2018-04-19T07:52:56.793Z,18.39
2018-04-19T07:55:24.500Z,18.62
2018-04-19T07:57:52.038Z,18.71
2018-04-19T08:00:19.517Z,18.57
2018-04-19T08:02:47.025Z,18.89
2018-04-19T08:05:14.542Z,19.21
2018-04-19T08:07:42.069Z,19.27
2018-04-19T08:10:09.570Z,19.30
2018-04-19T08:12:37.077Z,19.50
2018-04-19T08:15:04.609Z,19.80
2018-04-19T08:17:32.097Z,19.70
2018-04-19T08:19:59.632Z,19.84
2018-04-19T08:22:27.150Z,19.94
2018-04-19T08:24:54.638Z,20.62
2018-04-19T08:27:22.164Z,19.86
2018-04-19T08:29:49.649Z,20.34
2018-04-19T08:32:17.391Z,20.49
2018-04-19T08:34:44.889Z,20.62
2018-04-19T08:37:12.389Z,20.97
2018-04-19T08:39:39.903Z,21.21
2018-04-19T08:42:07.423Z,21.36
2018-04-19T08:44:35.113Z,21.55
2018-04-19T08:47:02.569Z,21.42
2018-04-19T08:49:30.065Z,21.75
2018-04-19T08:51:57.585Z,21.57
2018-04-19T08:54:25.089Z,21.68
2018-04-19T08:56:52.660Z,21.92
2018-04-19T08:59:20.148Z,21.98
2018-04-19T09:01:47.654Z,21.96
2018-04-19T09:04:15.166Z,21.93
2018-04-19T09:06:42.661Z,22.47
2018-04-19T09:09:10.199Z,22.26
2018-04-19T09:11:37.697Z,22.70
2018-04-19T09:14:05.184Z,22.44
2018-04-19T09:16:32.709Z,22.49
2018-04-19T09:19:00.196Z,22.56
2018-04-19T09:21:28.101Z,22.53
2018-04-19T09:23:55.589Z,22.81
2018-04-19T09:26:23.091Z,22.76
2018-04-19T09:28:50.604Z,22.76
2018-04-19T09:31:18.152Z,22.94
2018-04-19T09:33:45.853Z,22.65
2018-04-19T09:36:13.353Z,22.52
2018-04-19T09:38:40.917Z,23.01
2018-04-19T09:41:08.478Z,23.17
2018-04-19T09:43:35.980Z,23.19
2018-04-19T09:46:03.510Z,23.42
2018-04-19T09:48:31.010Z,23.18
2018-04-19T09:50:58.496Z,23.11
2018-04-19T09:53:26.005Z,23.06
2018-04-19T09:55:53.513Z,23.32
2018-04-19T09:58:21.132Z,23.45
2018-04-19T10:00:48.637Z,23.67
2018-04-19T10:03:18.868Z,23.26
2018-04-19T10:05:47.344Z,23.54
2018-04-19T10:08:14.857Z,23.58
2018-04-19T10:10:42.400Z,23.41
2018-04-19T10:13:09.912Z,23.37
2018-04-19T10:15:37.406Z,23.39
2018-04-19T10:18:04.916Z,23.77
2018-04-19T10:20:32.425Z,24.07
2018-04-19T10:23:00.053Z,23.65
2018-04-19T10:25:27.559Z,23.76
2018-04-19T10:27:55.053Z,24.18
2018-04-19T10:30:22.587Z,24.01
2018-04-19T10:32:50.097Z,23.84
2018-04-19T10:35:17.621Z,23.77
2018-04-19T10:37:45.127Z,24.08
2018-04-19T10:40:12.617Z,24.54
2018-04-19T10:42:40.143Z,24.40
2018-04-19T10:45:07.637Z,24.39
2018-04-19T10:47:35.266Z,24.50
2018-04-19T10:50:02.828Z,24.55
2018-04-19T10:52:30.329Z,24.51
2018-04-19T10:54:57.861Z,24.83
2018-04-19T10:57:25.367Z,24.42
2018-04-19T10:59:53.129Z,24.40
2018-04-19T11:02:20.621Z,24.29
2018-04-19T11:04:48.110Z,24.78
2018-04-19T11:07:15.629Z,24.86
2018-04-19T11:09:43.125Z,24.83
2018-04-19T11:12:10.666Z,25.18
2018-04-19T11:14:38.156Z,24.35
2018-04-19T11:17:05.649Z,24.33
2018-04-19T11:19:33.177Z,24.77
2018-04-19T11:22:00.665Z,24.61
2018-04-19T11:24:28.464Z,24.75
2018-04-19T11:26:55.981Z,24.46
2018-04-19T11:29:23.474Z,24.86
2018-04-19T11:31:50.986Z,24.80
2018-04-19T11:34:18.474Z,25.07
2018-04-19T11:36:46.326Z,25.01
2018-04-19T11:39:13.817Z,25.15
2018-04-19T11:41:41.305Z,24.89
2018-04-19T11:44:08.829Z,24.93
2018-04-19T11:46:36.362Z,24.96
2018-04-19T11:49:03.949Z,25.02
2018-04-19T11:51:31.508Z,25.12
2018-04-19T11:53:58.993Z,24.89
2018-04-19T11:56:26.504Z,25.12
2018-04-19T11:58:53.993Z,25.34
2018-04-19T12:01:21.513Z,25.54
2018-04-19T12:03:49.017Z,25.49
2018-04-19T12:06:16.513Z,25.66
2018-04-19T12:08:44.021Z,25.48
2018-04-19T12:11:11.505Z,25.81
2018-04-19T12:13:39.190Z,25.86
2018-04-19T12:16:06.696Z,25.89
2018-04-19T12:18:34.173Z,26.05
2018-04-19T12:21:01.937Z,25.79
2018-04-19T12:23:29.425Z,25.76
2018-04-19T12:25:57.184Z,26.01
2018-04-19T12:28:24.672Z,25.86
2018-04-19T12:30:52.178Z,25.71
2018-04-19T12:33:19.741Z,26.13
2018-04-19T12:35:47.225Z,26.11
2018-04-19T12:38:14.856Z,26.48
2018-04-19T12:40:42.345Z,26.21
2018-04-19T12:43:09.829Z,26.20
2018-04-19T12:45:37.333Z,26.30
2018-04-19T12:48:04.957Z,26.65
2018-04-19T12:50:32.811Z,26.72
2018-04-19T12:53:00.321Z,26.37
2018-04-19T12:55:27.798Z,26.75
2018-04-19T12:57:55.306Z,26.56
2018-04-19T13:00:22.813Z,26.54
2018-04-19T13:02:50.334Z,26.33
2018-04-19T13:05:17.830Z,26.66
2018-04-19T13:07:45.333Z,26.31
2018-04-19T13:10:12.849Z,26.52
2018-04-19T13:12:41.081Z,26.67
2018-04-19T13:15:08.761Z,26.71
2018-04-19T13:17:36.393Z,26.90
2018-04-19T13:20:03.881Z,27.03
2018-04-19T13:22:31.385Z,27.08
2018-04-19T13:24:58.909Z,27.18
2018-04-19T13:27:26.429Z,27.15
2018-04-19T13:29:53.933Z,27.30
2018-04-19T13:32:21.413Z,27.24
2018-04-19T13:34:48.942Z,27.11
2018-04-19T13:37:16.453Z,27.32
2018-04-19T13:39:43.965Z,27.26
2018-04-19T13:42:11.458Z,27.18
2018-04-19T13:44:38.954Z,27.20
2018-04-19T13:47:06.461Z,27.08
2018-04-19T13:49:33.945Z,27.47
2018-04-19T13:52:01.635Z,27.54
2018-04-19T13:54:29.117Z,27.32
2018-04-19T13:56:56.609Z,27.28
2018-04-19T13:59:24.125Z,27.25
2018-04-19T14:01:51.647Z,27.27
2018-04-19T14:04:19.269Z,27.36
2018-04-19T14:06:46.749Z,27.03
2018-04-19T14:09:14.252Z,27.12
2018-04-19T14:11:41.777Z,27.15
2018-04-19T14:14:09.262Z,27.36
2018-04-19T14:16:36.859Z,27.47
2018-04-19T14:19:04.353Z,27.61
2018-04-19T14:21:31.828Z,27.56
2018-04-19T14:23:59.337Z,27.46
2018-04-19T14:26:26.843Z,27.24
2018-04-19T14:28:54.376Z,27.47
2018-04-19T14:31:21.853Z,27.79
2018-04-19T14:33:49.358Z,27.43
2018-04-19T14:36:16.857Z,27.43
2018-04-19T14:38:44.354Z,27.36
2018-04-19T14:41:12.253Z,27.78
2018-04-19T14:43:39.768Z,27.50
2018-04-19T14:46:07.270Z,27.57
2018-04-19T14:48:34.777Z,27.60
2018-04-19T14:51:02.262Z,27.58
2018-04-19T14:53:29.909Z,27.57
2018-04-19T14:55:57.397Z,27.75
2018-04-19T14:58:24.879Z,27.39
2018-04-19T15:00:52.418Z,27.75
2018-04-19T15:03:19.893Z,27.81
2018-04-19T15:05:47.639Z,27.67
2018-04-19T15:08:15.122Z,27.60
2018-04-19T15:10:42.602Z,27.89
2018-04-19T15:13:10.137Z,27.79
2018-04-19T15:15:37.672Z,27.61
2018-04-19T15:18:05.446Z,27.80
2018-04-19T15:20:32.937Z,27.85
2018-04-19T15:23:00.439Z,27.75
2018-04-19T15:25:27.946Z,27.79
2018-04-19T15:27:55.427Z,27.82
2018-04-19T15:30:22.948Z,27.91
2018-04-19T15:32:50.425Z,27.83
2018-04-19T15:35:17.909Z,27.79
2018-04-19T15:37:45.418Z,27.73
2018-04-19T15:40:12.901Z,27.80
2018-04-19T15:42:41.341Z,27.73
2018-04-19T15:45:08.851Z,27.77
2018-04-19T15:47:36.335Z,27.72
2018-04-19T15:50:03.857Z,27.89
2018-04-19T15:52:31.359Z,27.88
2018-04-19T15:54:59.131Z,27.69
2018-04-19T15:57:26.610Z,27.71
2018-04-19T15:59:54.097Z,27.73
2018-04-19T16:02:21.607Z,27.66
2018-04-19T16:04:49.095Z,27.76
2018-04-19T16:07:16.976Z,27.62
2018-04-19T16:09:44.484Z,27.64
2018-04-19T16:12:11.965Z,27.60
2018-04-19T16:14:39.470Z,27.62
2018-04-19T16:17:07.019Z,27.67
2018-04-19T16:19:34.733Z,27.66
2018-04-19T16:22:02.239Z,27.58
2018-04-19T16:24:29.721Z,27.59
2018-04-19T16:26:57.245Z,27.52
2018-04-19T16:29:24.733Z,27.52
2018-04-19T16:31:52.285Z,27.43
2018-04-19T16:34:19.771Z,27.42
2018-04-19T16:36:47.285Z,27.42
2018-04-19T16:39:14.793Z,27.38
2018-04-19T16:41:42.284Z,27.36
2018-04-19T16:44:09.790Z,27.28
2018-04-19T16:46:37.429Z,27.21
2018-04-19T16:49:04.935Z,27.20
2018-04-19T16:51:32.425Z,27.10
2018-04-19T16:54:00.128Z,27.03
2018-04-19T16:56:27.632Z,26.96
2018-04-19T16:58:55.125Z,26.91
2018-04-19T17:01:22.666Z,26.91
2018-04-19T17:03:50.154Z,26.81
2018-04-19T17:06:17.682Z,26.71
2018-04-19T17:08:45.173Z,26.60
2018-04-19T17:11:12.921Z,26.55
2018-04-19T17:13:40.420Z,26.41
2018-04-19T17:16:07.909Z,26.46
2018-04-19T17:18:35.412Z,26.25
2018-04-19T17:21:02.897Z,26.08
2018-04-19T17:23:30.403Z,26.01
2018-04-19T17:25:57.906Z,25.72
2018-04-19T17:28:25.393Z,25.55
2018-04-19T17:30:52.909Z,25.37
2018-04-19T17:33:20.412Z,25.21
2018-04-19T17:35:47.956Z,25.09
2018-04-19T17:38:15.442Z,25.07
2018-04-19T17:40:42.958Z,25.04
2018-04-19T17:43:10.445Z,24.80
2018-04-19T17:45:37.920Z,24.52
2018-04-19T17:48:05.477Z,24.49
2018-04-19T17:50:32.937Z,24.17
2018-04-19T17:53:00.453Z,24.15
2018-04-19T17:55:27.949Z,23.77
2018-04-19T17:57:55.574Z,23.44
2018-04-19T18:00:23.088Z,23.23
2018-04-19T18:02:50.577Z,23.07
2018-04-19T18:05:18.103Z,22.79
2018-04-19T18:07:45.606Z,22.92
2018-04-19T18:10:13.358Z,22.74
2018-04-19T18:12:40.852Z,22.61
2018-04-19T18:15:08.347Z,22.51
2018-04-19T18:17:35.853Z,22.28
2018-04-19T18:20:03.354Z,22.27
2018-04-19T18:22:30.893Z,22.17
2018-04-19T18:24:58.374Z,21.90
2018-04-19T18:27:25.886Z,21.90
2018-04-19T18:29:53.393Z,21.52
2018-04-19T18:32:20.889Z,21.47
2018-04-19T18:34:48.420Z,21.19
2018-04-19T18:37:15.973Z,21.32
2018-04-19T18:39:43.806Z,21.30
2018-04-19T18:42:11.293Z,21.31
2018-04-19T18:44:39.178Z,21.18
2018-04-19T18:47:06.690Z,21.11
2018-04-19T18:49:34.998Z,20.95
2018-04-19T18:52:02.685Z,20.92
2018-04-19T18:54:30.173Z,20.88
2018-04-19T18:56:57.673Z,20.85
2018-04-19T18:59:25.181Z,20.89
2018-04-19T19:01:52.680Z,21.00
2018-04-19T19:04:20.197Z,20.99
2018-04-19T19:06:47.700Z,20.93
2018-04-19T19:09:15.412Z,20.91
2018-04-19T19:11:42.922Z,20.93
2018-04-19T19:14:10.412Z,20.96
2018-04-19T19:16:37.965Z,20.78
2018-04-19T19:19:17.468Z,20.72
2018-04-19T19:21:45.054Z,20.71
2018-04-19T19:24:12.550Z,20.60
2018-04-19T19:26:40.076Z,20.53
2018-04-19T19:29:07.609Z,20.08
2018-04-19T19:31:35.168Z,19.87
2018-04-19T19:34:03.472Z,19.85
2018-04-19T19:36:30.978Z,19.95
2018-04-19T19:38:58.543Z,20.13
2018-04-19T19:41:26.120Z,20.25
2018-04-19T19:43:53.993Z,19.85
2018-04-19T19:46:21.503Z,19.60
2018-04-19T19:48:49.958Z,19.34
2018-04-19T19:51:17.480Z,19.28
2018-04-19T19:53:44.989Z,18.77
2018-04-19T19:56:12.506Z,18.84
2018-04-19T19:58:40.001Z,18.49
2018-04-19T20:01:07.812Z,18.59
2018-04-19T20:03:35.305Z,18.23
2018-04-19T20:06:02.798Z,18.18
2018-04-19T20:08:30.338Z,18.11
2018-04-19T20:10:57.849Z,18.26
2018-04-19T20:13:25.377Z,18.19
2018-04-19T20:15:52.875Z,18.10
2018-04-19T20:18:20.509Z,18.25
2018-04-19T20:20:48.000Z,18.01
2018-04-19T20:23:15.501Z,17.86
2018-04-19T20:25:43.010Z,17.69
2018-04-19T20:28:10.528Z,17.92
2018-04-19T20:30:38.082Z,17.69
2018-04-19T20:33:05.573Z,17.68
2018-04-19T20:35:33.070Z,17.88
2018-04-19T20:38:00.597Z,17.72
2018-04-19T20:40:28.098Z,17.93
2018-04-19T20:42:55.822Z,17.72
2018-04-19T20:45:23.341Z,17.70
2018-04-19T20:47:50.828Z,17.74
2018-04-19T20:50:18.340Z,17.72
2018-04-19T20:52:45.833Z,17.32
2018-04-19T20:55:13.366Z,17.41
2018-04-19T20:57:40.849Z,17.39
2018-04-19T21:00:08.349Z,17.03
2018-04-19T21:02:35.854Z,16.85
2018-04-19T21:05:03.329Z,16.56
2018-04-19T21:07:31.033Z,16.49
2018-04-19T21:09:58.545Z,16.30
2018-04-19T21:12:26.029Z,16.25
2018-04-19T21:14:53.540Z,16.29
2018-04-19T21:17:21.025Z,16.41
2018-04-19T21:19:48.702Z,16.13
2018-04-19T21:22:16.193Z,16.23
2018-04-19T21:24:43.689Z,16.20
2018-04-19T21:27:11.217Z,15.85
2018-04-19T21:29:38.709Z,15.64
2018-04-19T21:32:06.259Z,15.60
2018-04-19T21:34:33.745Z,15.39
2018-04-19T21:37:01.233Z,15.18
2018-04-19T21:39:28.747Z,15.17
2018-04-19T21:41:56.227Z,15.11
2018-04-19T21:44:24.004Z,15.02
2018-04-19T21:46:51.509Z,14.71
2018-04-19T21:49:19.055Z,14.73
2018-04-19T21:51:46.560Z,14.85
2018-04-19T21:54:14.038Z,14.92
2018-04-19T21:56:41.886Z,15.01
2018-04-19T21:59:09.369Z,14.89
2018-04-19T22:01:36.888Z,14.60
2018-04-19T22:04:04.393Z,14.47
2018-04-19T22:06:31.885Z,14.31
2018-04-19T22:08:59.397Z,14.20
2018-04-19T22:11:26.877Z,14.42
2018-04-19T22:13:54.357Z,14.42
2018-04-19T22:16:21.865Z,14.53
2018-04-19T22:18:49.349Z,14.57
2018-04-19T22:21:16.992Z,14.52
2018-04-19T22:23:44.482Z,14.33
2018-04-19T22:26:11.971Z,14.21
2018-04-19T22:28:39.493Z,14.11
2018-04-19T22:31:06.972Z,13.96
2018-04-19T22:33:34.478Z,13.74
2018-04-19T22:36:01.980Z,13.84
2018-04-19T22:38:29.483Z,13.70
2018-04-19T22:40:56.992Z,13.58
2018-04-19T22:43:24.488Z,13.51
2018-04-19T22:45:51.993Z,13.59
2018-04-19T22:48:19.500Z,13.52
2018-04-19T22:50:47.001Z,13.39
2018-04-19T22:53:14.506Z,13.27
2018-04-19T22:55:42.002Z,13.37
2018-04-19T22:58:09.484Z,13.19
2018-04-19T23:00:37.005Z,13.02
2018-04-19T23:03:04.489Z,13.19
2018-04-19T23:05:31.977Z,12.92
2018-04-19T23:07:59.478Z,12.94
2018-04-19T23:10:26.953Z,13.10
2018-04-19T23:12:54.445Z,13.15
2018-04-19T23:15:21.957Z,12.99
2018-04-19T23:17:49.437Z,12.79
2018-04-19T23:20:16.945Z,12.83
2018-04-19T23:22:44.736Z,12.69
2018-04-19T23:25:12.214Z,12.66
2018-04-19T23:27:39.697Z,12.69
2018-04-19T23:30:07.474Z,12.56
2018-04-19T23:32:34.969Z,12.61
2018-04-19T23:35:02.451Z,12.66
2018-04-19T23:37:30.079Z,12.50
2018-04-19T23:39:57.568Z,12.64
2018-04-19T23:42:25.050Z,12.61
2018-04-19T23:44:52.631Z,12.54
2018-04-19T23:47:20.113Z,12.21
2018-04-19T23:49:47.593Z,12.36
2018-04-19T23:52:15.394Z,12.38
2018-04-19T23:54:42.889Z,12.24
2018-04-19T23:57:10.369Z,12.12
2018-04-19T23:59:38.213Z,12.06
